Time;durP1;ratioP1;P1;durP2;ratioP2;P2;SDS_P1;SDS_P2;PMS_P1;PMS_P2;Temp;Humidity;BMP_temperature;BMP_pressure;BME280_temperature;BME280_humidity;BME280_pressure;Samples;Min_cycle;Max_cycle;Signal;HPM_P1;HPM_P2
2022/04/14 00:01:27;;;;;;;;;;;;;;;5.01;52.96;95543.53;5075099;28;1033;-48
2022/04/14 00:03:53;;;;;;;;;;;;;;;4.79;53.31;95545.16;5075059;28;1186;-49
2022/04/14 00:06:19;;;;;;;;;;;;;;;4.91;53.26;95539.91;5074853;28;1914;-50
2022/04/14 00:08:45;;;;;;;;;;;;;;;5.12;53.37;95540.88;5074686;28;1069;-50
2022/04/14 00:11:11;;;;;;;;;;;;;;;5.24;53.55;95550.56;5075005;28;957;-48
2022/04/14 00:13:37;;;;;;;;;;;;;;;5.14;53.33;95546.06;5074952;28;1088;-50
2022/04/14 00:16:03;;;;;;;;;;;;;;;5.04;53.68;95545.94;5074631;28;1088;-49
2022/04/14 00:18:29;;;;;;;;;;;;;;;4.97;53.69;95552.66;5074743;28;1195;-50
2022/04/14 00:20:55;;;;;;;;;;;;;;;4.83;54.42;95538.66;5074649;28;964;-48
2022/04/14 00:23:21;;;;;;;;;;;;;;;4.84;54.92;95542.19;5074344;28;1048;-48
2022/04/14 00:25:47;;;;;;;;;;;;;;;4.84;54.57;95547.47;5074743;28;961;-49
2022/04/14 00:28:13;;;;;;;;;;;;;;;4.55;55.03;95542.53;5074587;28;1908;-49
2022/04/14 00:30:39;;;;;;;;;;;;;;;4.33;54.20;95553.91;5074184;28;1239;-48
2022/04/14 00:33:05;;;;;;;;;;;;;;;4.45;55.68;95554.78;5074401;28;966;-50
2022/04/14 00:35:31;;;;;;;;;;;;;;;4.52;54.46;95553.38;5074288;28;906;-51
2022/04/14 00:37:57;;;;;;;;;;;;;;;4.56;54.36;95548.72;5074350;28;960;-49
2022/04/14 00:40:23;;;;;;;;;;;;;;;4.65;54.89;95555.97;5074438;28;1020;-49
2022/04/14 00:42:49;;;;;;;;;;;;;;;4.65;54.11;95550.66;5074142;28;1072;-49
2022/04/14 00:45:16;;;;;;;;;;;;;;;4.78;54.40;95563.81;5074000;28;1055;-52
2022/04/14 00:47:42;;;;;;;;;;;;;;;4.68;54.40;95561.84;5073521;28;1914;-49
2022/04/14 00:50:08;;;;;;;;;;;;;;;4.57;54.50;95560.97;5074058;28;1028;-50
2022/04/14 00:52:35;;;;;;;;;;;;;;;4.37;54.88;95573.06;5073862;28;1842;-50
2022/04/14 00:55:01;;;;;;;;;;;;;;;4.17;55.06;95564.75;5073934;28;996;-49
2022/04/14 00:57:27;;;;;;;;;;;;;;;4.14;55.03;95566.81;5073840;28;1080;-49
2022/04/14 00:59:53;;;;;;;;;;;;;;;4.22;55.49;95562.63;5074130;28;985;-50
2022/04/14 01:02:19;;;;;;;;;;;;;;;4.25;55.54;95569.47;5073854;28;1033;-49
2022/04/14 01:04:45;;;;;;;;;;;;;;;4.15;55.90;95564.03;5074069;28;1040;-50
2022/04/14 01:07:11;;;;;;;;;;;;;;;4.02;56.08;95565.88;5073587;28;2004;-48
2022/04/14 01:09:37;;;;;;;;;;;;;;;3.84;56.22;95568.06;5073989;28;1026;-49
2022/04/14 01:12:04;;;;;;;;;;;;;;;3.65;56.04;95566.72;5073986;28;949;-48
2022/04/14 01:14:34;;;;;;;;;;;;;;;3.55;56.03;95568.31;5073919;28;958;-49
2022/04/14 01:17:02;;;;;;;;;;;;;;;3.67;56.25;95563.97;5073942;28;964;-49
2022/04/14 01:19:28;;;;;;;;;;;;;;;3.98;55.34;95567.06;5073515;28;1063;-50
2022/04/14 01:22:01;;;;;;;;;;;;;;;4.04;54.46;95578.06;5072263;28;984;-50
2022/04/14 01:24:28;;;;;;;;;;;;;;;3.78;54.75;95574.63;5073780;28;1048;-49
2022/04/14 01:26:54;;;;;;;;;;;;;;;3.52;55.36;95582.59;5073632;28;1913;-48
2022/04/14 01:29:24;;;;;;;;;;;;;;;3.64;55.59;95578.25;5073691;28;1009;-49
2022/04/14 01:31:50;;;;;;;;;;;;;;;3.90;55.40;95583.47;5073388;28;1245;-49
2022/04/14 01:34:17;;;;;;;;;;;;;;;4.14;54.25;95582.69;5073426;28;1021;-49
2022/04/14 01:36:43;;;;;;;;;;;;;;;4.16;55.18;95586.06;5073636;28;956;-48
2022/04/14 01:39:11;;;;;;;;;;;;;;;3.69;55.67;95586.69;5073608;28;1036;-48
2022/04/14 01:41:41;;;;;;;;;;;;;;;3.58;56.06;95586.59;5073378;28;1103;-49
2022/04/14 01:44:07;;;;;;;;;;;;;;;3.51;56.65;95594.13;5073583;28;1019;-48
2022/04/14 01:46:33;;;;;;;;;;;;;;;3.41;56.26;95592.22;5073324;28;1991;-48
2022/04/14 01:49:02;;;;;;;;;;;;;;;3.35;56.21;95597.94;5073285;28;1340;-48
2022/04/14 01:51:28;;;;;;;;;;;;;;;3.43;56.57;95596.44;5073214;28;1911;-50
2022/04/14 01:53:54;;;;;;;;;;;;;;;3.71;56.47;95595.34;5073254;28;1044;-50
2022/04/14 01:56:21;;;;;;;;;;;;;;;3.64;55.93;95596.78;5073407;28;1027;-50
2022/04/14 01:58:48;;;;;;;;;;;;;;;3.41;55.83;95601.00;5074041;28;1044;-50
2022/04/14 02:01:14;;;;;;;;;;;;;;;3.24;55.63;95586.28;5077264;28;1024;-49
2022/04/14 02:03:40;;;;;;;;;;;;;;;3.08;56.79;95589.16;5077130;28;961;-48
2022/04/14 02:06:06;;;;;;;;;;;;;;;2.93;57.02;95590.19;5077298;28;1902;-48
2022/04/14 02:08:32;;;;;;;;;;;;;;;3.01;57.56;95579.94;5077288;28;961;-48
2022/04/14 02:10:58;;;;;;;;;;;;;;;3.35;56.46;95582.09;5077296;28;992;-48
2022/04/14 02:13:24;;;;;;;;;;;;;;;3.48;55.56;95583.75;5077011;28;1091;-50
2022/04/14 02:15:50;;;;;;;;;;;;;;;3.63;55.90;95579.19;5077097;28;1040;-49
2022/04/14 02:18:16;;;;;;;;;;;;;;;3.58;55.81;95577.81;5077158;28;1024;-48
2022/04/14 02:20:42;;;;;;;;;;;;;;;3.43;56.14;95579.75;5076754;28;1037;-49
2022/04/14 02:23:08;;;;;;;;;;;;;;;3.40;55.73;95579.97;5077126;28;1052;-50
2022/04/14 02:25:34;;;;;;;;;;;;;;;3.39;56.64;95584.41;5076895;28;955;-48
2022/04/14 02:28:00;;;;;;;;;;;;;;;3.46;56.83;95590.13;5076978;28;1917;-49
2022/04/14 02:30:27;;;;;;;;;;;;;;;3.48;56.98;95586.41;5076730;28;1020;-50
2022/04/14 02:32:53;;;;;;;;;;;;;;;3.31;58.21;95590.22;5076450;28;1167;-50
2022/04/14 02:35:18;;;;;;;;;;;;;;;3.35;57.67;95585.56;5076569;28;954;-48
2022/04/14 02:37:44;;;;;;;;;;;;;;;3.39;58.67;95592.31;5076397;28;1020;-50
2022/04/14 02:40:11;;;;;;;;;;;;;;;3.57;58.53;95590.22;5076488;28;1017;-49
2022/04/14 02:42:37;;;;;;;;;;;;;;;3.51;57.81;95593.28;5077069;28;1036;-49
2022/04/14 02:45:03;;;;;;;;;;;;;;;3.40;57.85;95585.25;5076534;28;1031;-49
2022/04/14 02:47:29;;;;;;;;;;;;;;;3.11;58.53;95596.03;5076471;28;1991;-48
2022/04/14 02:49:55;;;;;;;;;;;;;;;2.76;58.02;95596.63;5076244;28;962;-49
2022/04/14 02:52:21;;;;;;;;;;;;;;;2.85;58.00;95596.00;5076117;28;1072;-48
2022/04/14 02:54:47;;;;;;;;;;;;;;;2.93;58.03;95606.88;5076270;28;1871;-48
2022/04/14 02:57:13;;;;;;;;;;;;;;;2.99;58.20;95603.00;5076430;28;1098;-48
2022/04/14 02:59:39;;;;;;;;;;;;;;;3.15;58.01;95601.94;5076123;28;1092;-48
2022/04/14 03:02:05;;;;;;;;;;;;;;;3.22;57.59;95609.34;5076384;28;1039;-48
2022/04/14 03:04:31;;;;;;;;;;;;;;;3.18;57.70;95607.88;5076405;28;987;-49
2022/04/14 03:06:57;;;;;;;;;;;;;;;2.85;58.59;95617.13;5076086;28;1910;-48
2022/04/14 03:09:23;;;;;;;;;;;;;;;2.62;59.01;95616.03;5076203;28;961;-49
2022/04/14 03:11:49;;;;;;;;;;;;;;;2.53;59.01;95617.47;5075250;28;996;-48
2022/04/14 03:14:15;;;;;;;;;;;;;;;2.46;59.82;95612.69;5075904;28;969;-48
2022/04/14 03:16:41;;;;;;;;;;;;;;;2.58;60.05;95598.69;5075863;28;1024;-50
2022/04/14 03:19:07;;;;;;;;;;;;;;;2.62;59.67;95607.25;5076003;28;1015;-50
2022/04/14 03:21:34;;;;;;;;;;;;;;;2.50;59.46;95614.19;5075928;28;965;-50
2022/04/14 03:24:00;;;;;;;;;;;;;;;2.52;58.85;95607.88;5075722;28;1080;-49
2022/04/14 03:26:26;;;;;;;;;;;;;;;2.60;58.23;95601.22;5075720;28;1894;-48
2022/04/14 03:28:52;;;;;;;;;;;;;;;2.73;59.07;95613.53;5075662;28;961;-48
2022/04/14 03:31:18;;;;;;;;;;;;;;;2.73;58.60;95612.66;5075690;28;1221;-49
2022/04/14 03:33:44;;;;;;;;;;;;;;;2.81;58.22;95612.13;5075504;28;1027;-49
2022/04/14 03:36:10;;;;;;;;;;;;;;;2.96;58.61;95624.34;5075564;28;1040;-50
2022/04/14 03:38:36;;;;;;;;;;;;;;;2.97;59.49;95626.03;5075762;28;953;-48
2022/04/14 03:41:04;;;;;;;;;;;;;;;2.99;59.90;95624.13;5075673;28;1040;-49
2022/04/14 03:43:33;;;;;;;;;;;;;;;2.90;59.24;95625.59;5075263;28;941;-49
2022/04/14 03:45:59;;;;;;;;;;;;;;;2.91;59.75;95639.66;5075212;28;1910;-49
2022/04/14 03:48:25;;;;;;;;;;;;;;;2.68;59.63;95636.75;5075408;28;964;-49
2022/04/14 03:50:51;;;;;;;;;;;;;;;2.56;58.49;95634.03;5075485;28;1035;-49
2022/04/14 03:53:18;;;;;;;;;;;;;;;2.19;59.23;95639.09;5075484;28;1072;-50
2022/04/14 03:55:46;;;;;;;;;;;;;;;2.13;59.84;95651.72;5075303;28;965;-50
2022/04/14 03:58:12;;;;;;;;;;;;;;;2.56;59.40;95645.44;5075055;28;1204;-50
2022/04/14 04:00:38;;;;;;;;;;;;;;;2.81;58.73;95644.69;5074958;28;1025;-50
2022/04/14 04:03:04;;;;;;;;;;;;;;;2.98;58.31;95637.44;5074872;28;1023;-49
2022/04/14 04:05:30;;;;;;;;;;;;;;;3.06;57.84;95637.78;5074805;28;1169;-49
2022/04/14 04:07:56;;;;;;;;;;;;;;;2.68;58.80;95643.81;5074944;28;1914;-48
2022/04/14 04:10:22;;;;;;;;;;;;;;;2.40;59.65;95650.88;5074911;28;1011;-49
2022/04/14 04:12:48;;;;;;;;;;;;;;;2.36;59.36;95648.56;5074711;28;1012;-51
2022/04/14 04:15:14;;;;;;;;;;;;;;;2.45;58.76;95654.09;5074663;28;1029;-48
2022/04/14 04:17:41;;;;;;;;;;;;;;;2.76;58.76;95659.16;5074853;28;1022;-48
2022/04/14 04:20:07;;;;;;;;;;;;;;;2.85;58.32;95675.25;5074763;28;981;-49
2022/04/14 04:22:33;;;;;;;;;;;;;;;3.37;57.98;95678.81;5074733;28;965;-48
2022/04/14 04:24:59;;;;;;;;;;;;;;;4.31;55.30;95667.00;5074490;28;1032;-49
2022/04/14 04:27:26;;;;;;;;;;;;;;;4.57;54.88;95667.78;5074712;28;1910;-50
2022/04/14 04:29:52;;;;;;;;;;;;;;;4.40;55.25;95669.00;5074423;28;1099;-49
2022/04/14 04:32:18;;;;;;;;;;;;;;;4.48;55.46;95676.38;5074125;28;1085;-50
2022/04/14 04:34:44;;;;;;;;;;;;;;;5.17;53.19;95678.41;5074485;28;1194;-50
2022/04/14 04:37:10;;;;;;;;;;;;;;;5.74;51.25;95679.38;5074466;28;1131;-50
2022/04/14 04:39:37;;;;;;;;;;;;;;;5.99;50.14;95678.34;5074207;28;1079;-49
2022/04/14 04:42:03;;;;;;;;;;;;;;;6.04;49.37;95692.13;5074164;28;1040;-50
2022/04/14 04:44:29;;;;;;;;;;;;;;;6.33;49.33;95705.72;5072934;28;1013;-50
2022/04/14 04:46:55;;;;;;;;;;;;;;;7.26;47.85;95716.91;5073906;28;1991;-50
2022/04/14 04:49:21;;;;;;;;;;;;;;;6.94;49.77;95712.41;5074240;28;944;-50
2022/04/14 04:51:47;;;;;;;;;;;;;;;7.26;49.17;95712.41;5074018;28;1016;-49
2022/04/14 04:54:13;;;;;;;;;;;;;;;8.52;46.76;95719.56;5074113;28;964;-49
2022/04/14 04:56:39;;;;;;;;;;;;;;;9.93;43.10;95725.44;5074244;28;963;-50
2022/04/14 04:59:05;;;;;;;;;;;;;;;10.21;42.30;95728.22;5074234;28;968;-49
2022/04/14 05:01:31;;;;;;;;;;;;;;;9.97;42.25;95726.84;5073845;28;1011;-50
2022/04/14 05:03:57;;;;;;;;;;;;;;;10.17;40.99;95724.16;5073683;28;1032;-49
2022/04/14 05:06:23;;;;;;;;;;;;;;;10.69;40.92;95724.53;5073703;28;1988;-49
2022/04/14 05:08:49;;;;;;;;;;;;;;;10.99;40.62;95717.22;5073828;28;1031;-50
2022/04/14 05:11:15;;;;;;;;;;;;;;;10.73;39.77;95717.06;5073814;28;1037;-48
2022/04/14 05:13:41;;;;;;;;;;;;;;;10.07;42.08;95732.19;5073890;28;1008;-50
2022/04/14 05:16:09;;;;;;;;;;;;;;;9.15;44.09;95725.44;5073862;28;962;-50
2022/04/14 05:18:35;;;;;;;;;;;;;;;8.51;44.62;95717.84;5073639;28;1024;-49
2022/04/14 05:21:01;;;;;;;;;;;;;;;8.07;46.20;95727.84;5073776;28;1177;-50
2022/04/14 05:23:27;;;;;;;;;;;;;;;8.09;46.11;95734.72;5073510;28;1020;-48
2022/04/14 05:25:56;;;;;;;;;;;;;;;8.37;45.11;95727.03;5073458;28;1104;-56
2022/04/14 05:28:22;;;;;;;;;;;;;;;8.20;43.71;95728.47;5073324;28;1906;-48
2022/04/14 05:30:48;;;;;;;;;;;;;;;7.93;46.30;95726.34;5073280;28;1100;-48
2022/04/14 05:33:14;;;;;;;;;;;;;;;7.90;48.10;95721.31;5073275;28;996;-50
2022/04/14 05:35:43;;;;;;;;;;;;;;;7.85;47.13;95724.34;5073529;28;1056;-48
2022/04/14 05:38:09;;;;;;;;;;;;;;;7.81;47.18;95720.25;5073472;28;997;-48
2022/04/14 05:40:41;;;;;;;;;;;;;;;7.81;47.46;95718.44;5073240;28;1848;-49
2022/04/14 05:43:20;;;;;;;;;;;;;;;7.73;47.75;95720.91;5073380;28;992;-50
2022/04/14 05:45:49;;;;;;;;;;;;;;;7.72;49.16;95735.22;5073347;28;1001;-49
2022/04/14 05:48:16;;;;;;;;;;;;;;;8.06;48.80;95726.16;5073211;28;1906;-49
2022/04/14 05:50:43;;;;;;;;;;;;;;;8.39;46.91;95736.56;5073322;28;992;-49
2022/04/14 05:53:09;;;;;;;;;;;;;;;8.84;46.35;95727.38;5073319;28;958;-48
2022/04/14 05:55:36;;;;;;;;;;;;;;;9.64;46.19;95730.81;5073291;28;987;-48
2022/04/14 05:58:05;;;;;;;;;;;;;;;10.35;44.99;95733.09;5072270;28;1036;-50
2022/04/14 06:00:32;;;;;;;;;;;;;;;10.35;44.20;95727.75;5073376;28;949;-50
2022/04/14 06:02:59;;;;;;;;;;;;;;;9.87;45.71;95728.69;5073119;28;1020;-49
2022/04/14 06:05:29;;;;;;;;;;;;;;;9.59;46.83;95730.41;5073230;28;1011;-48
2022/04/14 06:07:56;;;;;;;;;;;;;;;9.40;47.26;95727.72;5073064;28;1902;-49
2022/04/14 06:10:23;;;;;;;;;;;;;;;9.36;47.52;95729.84;5072960;28;1099;-49
2022/04/14 06:12:49;;;;;;;;;;;;;;;9.27;47.13;95726.16;5073314;28;950;-48
2022/04/14 06:15:19;;;;;;;;;;;;;;;9.29;47.11;95726.03;5073285;28;996;-49
2022/04/14 06:17:45;;;;;;;;;;;;;;;9.45;46.08;95721.00;5073336;28;965;-49
2022/04/14 06:20:11;;;;;;;;;;;;;;;9.67;45.63;95721.69;5072885;28;1013;-48
2022/04/14 06:22:38;;;;;;;;;;;;;;;10.23;45.49;95739.59;5073040;28;1044;-48
2022/04/14 06:25:05;;;;;;;;;;;;;;;10.84;44.74;95740.94;5073177;28;1025;-49
2022/04/14 06:27:32;;;;;;;;;;;;;;;11.37;42.38;95736.69;5073076;28;1993;-49
2022/04/14 06:29:58;;;;;;;;;;;;;;;11.61;42.56;95740.59;5072940;28;1841;-50
2022/04/14 06:32:24;;;;;;;;;;;;;;;11.97;40.38;95717.34;5072741;28;1203;-48
2022/04/14 06:34:50;;;;;;;;;;;;;;;12.15;40.52;95722.66;5073094;28;988;-50
2022/04/14 06:37:16;;;;;;;;;;;;;;;12.46;40.86;95719.50;5072773;28;1035;-48
2022/04/14 06:39:42;;;;;;;;;;;;;;;13.12;39.43;95728.69;5072977;28;1072;-48
2022/04/14 06:42:09;;;;;;;;;;;;;;;13.59;36.92;95725.47;5072812;28;1032;-48
2022/04/14 06:44:35;;;;;;;;;;;;;;;14.19;35.63;95718.09;5072970;28;979;-49
2022/04/14 06:47:01;;;;;;;;;;;;;;;14.91;35.44;95728.91;5075291;28;1986;-48
2022/04/14 06:49:27;;;;;;;;;;;;;;;16.53;34.36;95731.72;5076339;28;1044;-48
2022/04/14 06:51:53;;;;;;;;;;;;;;;19.03;30.86;95729.47;5076329;28;1044;-48
2022/04/14 06:54:19;;;;;;;;;;;;;;;21.53;26.92;95734.81;5076540;28;977;-50
2022/04/14 06:56:45;;;;;;;;;;;;;;;23.88;24.02;95740.00;5076568;28;1042;-50
2022/04/14 06:59:11;;;;;;;;;;;;;;;25.92;21.77;95743.31;5076128;28;1021;-50
2022/04/14 07:01:37;;;;;;;;;;;;;;;27.63;19.65;95740.41;5076281;28;1024;-49
2022/04/14 07:04:03;;;;;;;;;;;;;;;28.62;18.02;95742.13;5076166;28;1028;-49
2022/04/14 07:06:29;;;;;;;;;;;;;;;29.05;18.19;95742.22;5076032;28;1898;-49
2022/04/14 07:08:56;;;;;;;;;;;;;;;29.06;17.18;95743.84;5076265;28;1023;-49
2022/04/14 07:11:22;;;;;;;;;;;;;;;28.42;18.05;95753.75;5076203;28;1052;-52
2022/04/14 07:13:48;;;;;;;;;;;;;;;27.09;18.96;95762.97;5076246;28;1023;-48
2022/04/14 07:16:14;;;;;;;;;;;;;;;25.20;20.56;95762.78;5076026;28;982;-50
2022/04/14 07:18:40;;;;;;;;;;;;;;;23.43;22.14;95760.25;5076018;28;1028;-48
2022/04/14 07:21:06;;;;;;;;;;;;;;;21.95;23.47;95747.97;5075907;28;1032;-48
2022/04/14 07:23:32;;;;;;;;;;;;;;;21.00;24.28;95756.66;5076005;28;992;-48
2022/04/14 07:25:58;;;;;;;;;;;;;;;20.15;24.69;95756.44;5075701;28;1091;-50
2022/04/14 07:28:24;;;;;;;;;;;;;;;19.72;25.49;95756.69;5075822;28;1910;-48
2022/04/14 07:30:50;;;;;;;;;;;;;;;19.72;24.27;95749.41;5075459;28;1218;-49
2022/04/14 07:33:16;;;;;;;;;;;;;;;19.36;25.12;95738.81;5075645;28;1048;-48
2022/04/14 07:35:43;;;;;;;;;;;;;;;19.20;25.55;95739.97;5075805;28;1008;-49
2022/04/14 07:38:09;;;;;;;;;;;;;;;19.59;25.90;95747.47;5075719;28;992;-49
2022/04/14 07:40:35;;;;;;;;;;;;;;;19.53;24.78;95753.69;5075459;28;1020;-49
2022/04/14 07:43:02;;;;;;;;;;;;;;;19.28;25.03;95756.09;5075640;28;968;-48
2022/04/14 07:45:28;;;;;;;;;;;;;;;19.15;25.92;95747.91;5075329;28;1111;-49
2022/04/14 07:47:54;;;;;;;;;;;;;;;19.43;26.59;95755.97;5075371;28;1999;-49
2022/04/14 07:50:22;;;;;;;;;;;;;;;19.57;26.92;95754.97;5075332;28;965;-48
2022/04/14 07:52:48;;;;;;;;;;;;;;;19.57;27.05;95759.56;5075125;28;1023;-50
2022/04/14 07:55:17;;;;;;;;;;;;;;;19.33;26.27;95755.47;5075394;28;1036;-48
2022/04/14 07:57:43;;;;;;;;;;;;;;;19.24;28.36;95752.13;5074985;28;1000;-50
2022/04/14 08:00:10;;;;;;;;;;;;;;;19.39;27.34;95754.66;5075161;28;1039;-48
2022/04/14 08:02:44;;;;;;;;;;;;;;;19.22;28.30;95749.59;5075120;28;1060;-50
2022/04/14 08:05:10;;;;;;;;;;;;;;;18.82;27.24;95743.09;5075251;28;1048;-48
2022/04/14 08:07:36;;;;;;;;;;;;;;;18.54;26.49;95747.44;5075281;28;1914;-49
2022/04/14 08:10:02;;;;;;;;;;;;;;;18.57;27.52;95743.50;5075034;28;1032;-48
2022/04/14 08:12:29;;;;;;;;;;;;;;;18.69;26.86;95739.22;5075017;28;1041;-48
2022/04/14 08:14:55;;;;;;;;;;;;;;;18.71;29.06;95728.22;5074694;28;1028;-49
2022/04/14 08:17:21;;;;;;;;;;;;;;;18.65;26.58;95726.28;5074897;28;1039;-48
2022/04/14 08:19:47;;;;;;;;;;;;;;;18.80;28.84;95734.28;5074744;28;1068;-49
2022/04/14 08:22:13;;;;;;;;;;;;;;;18.79;27.45;95725.34;5074502;28;1013;-48
2022/04/14 08:24:39;;;;;;;;;;;;;;;18.84;28.14;95725.63;5074815;28;1027;-49
2022/04/14 08:27:05;;;;;;;;;;;;;;;18.86;27.56;95733.56;5074718;28;1922;-48
2022/04/14 08:29:31;;;;;;;;;;;;;;;18.91;28.39;95731.06;5074625;28;960;-49
2022/04/14 08:31:58;;;;;;;;;;;;;;;19.02;27.83;95716.94;5074229;28;1088;-48
2022/04/14 08:34:24;;;;;;;;;;;;;;;18.92;29.31;95720.03;5074609;28;981;-50
2022/04/14 08:36:52;;;;;;;;;;;;;;;19.33;28.12;95717.53;5074102;28;1008;-48
2022/04/14 08:39:18;;;;;;;;;;;;;;;19.54;28.54;95712.00;5074240;28;1016;-49
2022/04/14 08:41:49;;;;;;;;;;;;;;;19.55;28.17;95719.06;5074514;28;1052;-49
2022/04/14 08:44:18;;;;;;;;;;;;;;;19.76;29.24;95711.88;5074373;28;949;-49
2022/04/14 08:46:47;;;;;;;;;;;;;;;19.81;28.13;95709.38;5074265;28;1918;-51
2022/04/14 08:49:16;;;;;;;;;;;;;;;19.96;28.49;95701.91;5074298;28;974;-49
2022/04/14 08:51:42;;;;;;;;;;;;;;;19.99;28.56;95701.47;5074017;28;1087;-49
2022/04/14 08:54:09;;;;;;;;;;;;;;;19.99;27.12;95696.03;5074205;28;1012;-49
2022/04/14 08:56:35;;;;;;;;;;;;;;;20.23;27.49;95691.91;5074116;28;1004;-51
2022/04/14 08:59:02;;;;;;;;;;;;;;;20.14;25.40;95687.72;5074008;28;1028;-50
2022/04/14 09:01:28;;;;;;;;;;;;;;;20.12;28.65;95687.09;5073875;28;1063;-50
2022/04/14 09:03:55;;;;;;;;;;;;;;;20.35;27.41;95681.22;5073822;28;982;-50
2022/04/14 09:06:22;;;;;;;;;;;;;;;20.43;26.96;95686.47;5074032;28;1914;-50
2022/04/14 09:08:48;;;;;;;;;;;;;;;20.30;25.89;95681.06;5073058;28;1032;-48
2022/04/14 09:11:14;;;;;;;;;;;;;;;20.18;27.75;95678.09;5073892;28;1049;-51
2022/04/14 09:13:43;;;;;;;;;;;;;;;20.28;26.97;95672.28;5073759;28;1203;-50
2022/04/14 09:16:09;;;;;;;;;;;;;;;20.34;26.13;95666.00;5073924;28;1039;-49
2022/04/14 09:18:35;;;;;;;;;;;;;;;20.24;26.68;95655.56;5073600;28;956;-49
2022/04/14 09:21:03;;;;;;;;;;;;;;;20.10;27.65;95659.31;5073939;28;1021;-50
2022/04/14 09:23:28;;;;;;;;;;;;;;;20.00;26.98;95654.31;5073790;28;1008;-48
2022/04/14 09:26:04;;;;;;;;;;;;;;;20.19;28.83;95649.91;5073668;28;1004;-51
2022/04/14 09:28:30;;;;;;;;;;;;;;;20.73;27.64;95648.00;5073418;28;1898;-49
2022/04/14 09:34:41;;;;;;;;;;;;;;;20.77;27.48;95627.53;4742603;28;2318;-51
2022/04/14 09:37:11;;;;;;;;;;;;;;;20.89;27.00;95624.13;5073840;28;1048;-48
2022/04/14 09:39:55;;;;;;;;;;;;;;;21.15;27.08;95615.91;5073358;28;1088;-50
2022/04/14 09:42:25;;;;;;;;;;;;;;;21.15;27.17;95612.31;5073746;28;1019;-51
2022/04/14 09:44:51;;;;;;;;;;;;;;;21.15;27.76;95609.59;5073632;28;1053;-49
2022/04/14 09:47:23;;;;;;;;;;;;;;;21.02;25.49;95599.63;5073241;28;1891;-50
2022/04/14 09:49:49;;;;;;;;;;;;;;;21.07;23.69;95599.81;5073290;28;964;-50
2022/04/14 09:52:15;;;;;;;;;;;;;;;21.02;24.34;95599.63;5073264;28;957;-48
2022/04/14 09:54:41;;;;;;;;;;;;;;;21.05;23.06;95591.03;5073447;28;953;-50
2022/04/14 09:57:10;;;;;;;;;;;;;;;21.01;21.84;95590.63;5073248;28;1112;-49
2022/04/14 09:59:37;;;;;;;;;;;;;;;21.01;23.16;95579.75;5073296;28;1237;-49
2022/04/14 10:02:12;;;;;;;;;;;;;;;20.94;22.54;95583.56;5073371;28;1068;-51
2022/04/14 10:04:42;;;;;;;;;;;;;;;20.75;22.55;95583.41;5073151;28;1076;-51
2022/04/14 10:07:13;;;;;;;;;;;;;;;20.86;23.95;95579.19;5073051;28;2000;-48
2022/04/14 10:09:41;;;;;;;;;;;;;;;20.73;24.09;95582.78;5073379;28;973;-51
2022/04/14 10:12:16;;;;;;;;;;;;;;;20.76;24.55;95571.50;5073036;28;1020;-48
2022/04/14 10:14:42;;;;;;;;;;;;;;;20.84;22.38;95567.69;5073011;28;1013;-51
2022/04/14 10:17:10;;;;;;;;;;;;;;;20.80;24.45;95563.75;5072912;28;996;-49
2022/04/14 10:19:36;;;;;;;;;;;;;;;21.06;23.98;95565.53;5073795;28;1169;-49
2022/04/14 10:22:04;;;;;;;;;;;;;;;21.18;24.33;95576.56;5077107;28;1036;-50
2022/04/14 10:24:33;;;;;;;;;;;;;;;21.19;22.40;95568.19;5076824;28;1103;-49
2022/04/14 10:26:59;;;;;;;;;;;;;;;21.07;23.44;95569.91;5077076;28;1914;-49
2022/04/14 10:29:27;;;;;;;;;;;;;;;21.01;21.96;95570.78;5077117;28;1020;-50
2022/04/14 10:31:54;;;;;;;;;;;;;;;20.81;22.50;95570.84;5076603;28;1082;-50
2022/04/14 10:34:21;;;;;;;;;;;;;;;20.59;21.83;95564.84;5076614;28;1332;-49
2022/04/14 10:36:48;;;;;;;;;;;;;;;20.54;24.19;95559.22;5076949;28;995;-49
2022/04/14 10:39:15;;;;;;;;;;;;;;;20.69;23.59;95553.56;5075646;28;961;-51
2022/04/14 10:41:44;;;;;;;;;;;;;;;20.82;23.83;95553.50;5076878;28;973;-51
2022/04/14 10:44:11;;;;;;;;;;;;;;;20.53;22.28;95557.56;5076539;28;965;-49
2022/04/14 10:46:40;;;;;;;;;;;;;;;20.44;23.67;95565.91;5076520;28;1921;-50
2022/04/14 10:49:10;;;;;;;;;;;;;;;20.55;22.95;95555.47;5076418;28;1084;-50
2022/04/14 10:51:37;;;;;;;;;;;;;;;20.65;22.09;95555.88;5076491;28;1016;-50
2022/04/14 10:54:09;;;;;;;;;;;;;;;20.52;21.09;95548.56;5076447;28;933;-51
2022/04/14 10:56:34;;;;;;;;;;;;;;;20.52;22.27;95551.25;5076496;28;1017;-49
2022/04/14 10:59:02;;;;;;;;;;;;;;;20.74;23.33;95551.03;5076378;28;970;-49
2022/04/14 11:01:52;;;;;;;;;;;;;;;20.80;23.50;95550.16;5076342;28;973;-51
2022/04/14 11:04:24;;;;;;;;;;;;;;;20.89;22.89;95553.47;5076309;28;1020;-51
2022/04/14 11:06:54;;;;;;;;;;;;;;;20.89;24.38;95550.75;5075980;28;1914;-51
2022/04/14 11:09:42;;;;;;;;;;;;;;;20.85;23.04;95547.66;5076005;28;1020;-50
2022/04/14 11:12:08;;;;;;;;;;;;;;;20.90;23.58;95550.53;5075924;28;1048;-49
2022/04/14 11:14:35;;;;;;;;;;;;;;;20.90;24.46;95555.13;5075859;28;1025;-49
2022/04/14 11:17:03;;;;;;;;;;;;;;;20.86;23.76;95541.16;5076089;28;1131;-49
2022/04/14 11:19:30;;;;;;;;;;;;;;;20.91;24.22;95540.50;5075918;28;1067;-49
2022/04/14 11:21:59;;;;;;;;;;;;;;;20.82;24.67;95537.19;5075754;28;1030;-49
2022/04/14 11:24:45;;;;;;;;;;;;;;;20.73;22.88;95533.88;5075867;28;961;-48
2022/04/14 11:27:14;;;;;;;;;;;;;;;20.52;21.83;95534.16;5075699;28;1946;-50
2022/04/14 11:29:43;;;;;;;;;;;;;;;20.40;21.81;95533.97;5075568;28;996;-49
2022/04/14 11:32:09;;;;;;;;;;;;;;;20.36;22.29;95528.13;5074811;28;925;-49
2022/04/14 11:34:36;;;;;;;;;;;;;;;20.43;23.39;95528.97;5075337;28;1080;-49
2022/04/14 11:37:02;;;;;;;;;;;;;;;20.48;22.20;95537.28;5075620;28;961;-49
2022/04/14 11:39:29;;;;;;;;;;;;;;;20.51;21.59;95529.75;5075507;28;1028;-49
2022/04/14 11:42:02;;;;;;;;;;;;;;;20.49;23.46;95521.84;5075377;28;1024;-49
2022/04/14 11:44:31;;;;;;;;;;;;;;;20.52;23.47;95520.56;5075478;28;1064;-50
2022/04/14 11:47:01;;;;;;;;;;;;;;;20.62;23.10;95527.25;5075175;28;1918;-50
2022/04/14 11:49:28;;;;;;;;;;;;;;;20.74;24.23;95518.44;5074588;28;1020;-49
2022/04/14 11:51:55;;;;;;;;;;;;;;;20.74;21.29;95516.53;5075289;28;973;-49
2022/04/14 11:54:22;;;;;;;;;;;;;;;20.55;20.94;95517.44;5075371;28;969;-49
2022/04/14 11:56:52;;;;;;;;;;;;;;;20.52;22.75;95509.69;5075364;28;1051;-49
2022/04/14 11:59:19;;;;;;;;;;;;;;;20.43;22.34;95504.50;5074937;28;1033;-49
2022/04/14 12:01:49;;;;;;;;;;;;;;;20.47;22.90;95503.03;5074826;28;978;-49
2022/04/14 12:04:15;;;;;;;;;;;;;;;20.60;23.31;95494.03;5075311;28;1049;-49
2022/04/14 12:06:54;;;;;;;;;;;;;;;20.64;20.58;95497.97;5074964;28;1983;-49
2022/04/14 12:09:21;;;;;;;;;;;;;;;20.62;23.09;95491.94;5073779;28;1048;-49
2022/04/14 12:11:47;;;;;;;;;;;;;;;20.80;24.00;95484.94;5074747;28;1844;-49
2022/04/14 12:14:14;;;;;;;;;;;;;;;20.81;23.21;95484.75;5075072;28;926;-49
2022/04/14 12:16:50;;;;;;;;;;;;;;;20.75;22.51;95491.03;5074936;28;1008;-49
2022/04/14 12:19:16;;;;;;;;;;;;;;;20.79;22.17;95486.00;5074850;28;977;-49
2022/04/14 12:21:42;;;;;;;;;;;;;;;20.67;22.86;95480.41;5074745;28;981;-49
2022/04/14 12:24:08;;;;;;;;;;;;;;;20.66;22.25;95476.88;5074451;28;930;-49
2022/04/14 12:26:37;;;;;;;;;;;;;;;20.68;22.86;95476.66;5074639;28;1910;-49
2022/04/14 12:29:07;;;;;;;;;;;;;;;20.77;21.48;95469.94;5074301;28;1024;-49
2022/04/14 12:31:33;;;;;;;;;;;;;;;20.84;22.20;95467.16;5074583;28;1035;-49
2022/04/14 12:33:59;;;;;;;;;;;;;;;20.92;23.55;95460.63;5074249;28;1418;-49
2022/04/14 12:36:35;;;;;;;;;;;;;;;20.96;23.82;95457.28;5074365;28;957;-49
2022/04/14 12:39:05;;;;;;;;;;;;;;;21.01;24.10;95452.00;5074275;28;1027;-49
2022/04/14 12:41:35;;;;;;;;;;;;;;;21.03;23.55;95457.22;5074111;28;1061;-49
2022/04/14 12:44:01;;;;;;;;;;;;;;;20.92;22.66;95444.31;5073247;28;1008;-49
2022/04/14 12:46:27;;;;;;;;;;;;;;;20.80;22.40;95436.03;5074148;28;1992;-49
2022/04/14 12:48:59;;;;;;;;;;;;;;;20.92;22.23;95445.16;5074319;28;954;-49
2022/04/14 12:51:29;;;;;;;;;;;;;;;20.91;20.66;95434.53;5074008;28;1044;-49
2022/04/14 12:53:55;;;;;;;;;;;;;;;20.85;21.07;95434.34;5073837;28;1027;-49
2022/04/14 12:56:21;;;;;;;;;;;;;;;20.83;22.57;95430.16;5074159;28;1045;-49
2022/04/14 12:59:06;;;;;;;;;;;;;;;20.94;21.08;95431.34;5073987;28;1051;-49
2022/04/14 13:01:47;;;;;;;;;;;;;;;20.90;21.36;95425.50;5074032;28;973;-49
2022/04/14 13:04:13;;;;;;;;;;;;;;;20.97;22.96;95429.03;5073649;28;1033;-49
2022/04/14 13:06:39;;;;;;;;;;;;;;;21.06;20.61;95429.59;5073652;28;1918;-49
2022/04/14 13:09:15;;;;;;;;;;;;;;;21.01;22.10;95419.38;5073858;28;949;-49